sensor_id;sensor_type;location;lat;lon;timestamp;temperature;humidity
20398;DHT22;10358;49.590;11.030;2023-02-18T00:02:17;11.10;99.90
20398;DHT22;10358;49.590;11.030;2023-02-18T00:04:43;11.10;99.90
20398;DHT22;10358;49.590;11.030;2023-02-18T00:07:08;11.10;99.90
20398;DHT22;10358;49.590;11.030;2023-02-18T00:09:34;11.10;99.90
20398;DHT22;10358;49.590;11.030;2023-02-18T00:11:59;11.10;99.90
20398;DHT22;10358;49.590;11.030;2023-02-18T00:14:25;11.10;99.90
20398;DHT22;10358;49.590;11.030;2023-02-18T00:16:50;11.10;99.90
20398;DHT22;10358;49.590;11.030;2023-02-18T00:19:18;11.10;99.90
20398;DHT22;10358;49.590;11.030;2023-02-18T00:21:45;11.10;99.90
20398;DHT22;10358;49.590;11.030;2023-02-18T00:24:12;11.10;99.90
20398;DHT22;10358;49.590;11.030;2023-02-18T00:26:40;11.10;99.90
20398;DHT22;10358;49.590;11.030;2023-02-18T00:29:05;11.10;99.90
20398;DHT22;10358;49.590;11.030;2023-02-18T00:31:33;11.10;99.90
20398;DHT22;10358;49.590;11.030;2023-02-18T00:34:00;11.10;99.90
20398;DHT22;10358;49.590;11.030;2023-02-18T00:36:27;11.10;99.90
20398;DHT22;10358;49.590;11.030;2023-02-18T00:38:57;11.10;99.90
20398;DHT22;10358;49.590;11.030;2023-02-18T00:41:25;11.10;99.90
20398;DHT22;10358;49.590;11.030;2023-02-18T00:43:51;11.10;99.90
20398;DHT22;10358;49.590;11.030;2023-02-18T00:46:17;11.10;99.90
20398;DHT22;10358;49.590;11.030;2023-02-18T00:48:43;11.10;99.90
20398;DHT22;10358;49.590;11.030;2023-02-18T00:51:09;11.10;99.90
20398;DHT22;10358;49.590;11.030;2023-02-18T00:53:35;11.10;99.90
20398;DHT22;10358;49.590;11.030;2023-02-18T00:56:01;11.10;99.90
20398;DHT22;10358;49.590;11.030;2023-02-18T00:58:27;11.10;99.90
20398;DHT22;10358;49.590;11.030;2023-02-18T01:00:53;11.10;99.90
20398;DHT22;10358;49.590;11.030;2023-02-18T01:03:18;11.10;99.90
20398;DHT22;10358;49.590;11.030;2023-02-18T01:05:44;11.10;99.90
20398;DHT22;10358;49.590;11.030;2023-02-18T01:08:10;11.10;99.90
20398;DHT22;10358;49.590;11.030;2023-02-18T01:10:40;11.10;99.90
20398;DHT22;10358;49.590;11.030;2023-02-18T01:13:06;11.10;99.90
20398;DHT22;10358;49.590;11.030;2023-02-18T01:15:32;11.10;99.90
20398;DHT22;10358;49.590;11.030;2023-02-18T01:17:58;11.10;99.90
20398;DHT22;10358;49.590;11.030;2023-02-18T01:20:23;11.10;99.90
20398;DHT22;10358;49.590;11.030;2023-02-18T01:22:49;11.00;99.90
20398;DHT22;10358;49.590;11.030;2023-02-18T01:25:14;11.10;99.90
20398;DHT22;10358;49.590;11.030;2023-02-18T01:27:40;11.10;99.90
20398;DHT22;10358;49.590;11.030;2023-02-18T01:30:07;11.10;99.90
20398;DHT22;10358;49.590;11.030;2023-02-18T01:32:33;11.10;99.90
20398;DHT22;10358;49.590;11.030;2023-02-18T01:35:03;11.10;99.90
20398;DHT22;10358;49.590;11.030;2023-02-18T01:37:29;11.10;99.90
20398;DHT22;10358;49.590;11.030;2023-02-18T01:39:54;11.10;99.90
20398;DHT22;10358;49.590;11.030;2023-02-18T01:42:23;11.00;99.90
20398;DHT22;10358;49.590;11.030;2023-02-18T01:44:48;11.00;99.90
20398;DHT22;10358;49.590;11.030;2023-02-18T01:47:15;11.10;99.90
20398;DHT22;10358;49.590;11.030;2023-02-18T01:49:42;11.00;99.90
20398;DHT22;10358;49.590;11.030;2023-02-18T01:52:19;11.00;99.90
20398;DHT22;10358;49.590;11.030;2023-02-18T01:54:50;11.00;99.90
20398;DHT22;10358;49.590;11.030;2023-02-18T01:57:20;10.90;99.90
20398;DHT22;10358;49.590;11.030;2023-02-18T01:59:58;10.90;99.90
20398;DHT22;10358;49.590;11.030;2023-02-18T02:02:27;10.90;99.90
20398;DHT22;10358;49.590;11.030;2023-02-18T02:04:54;10.80;99.90
20398;DHT22;10358;49.590;11.030;2023-02-18T02:07:21;10.80;99.90
20398;DHT22;10358;49.590;11.030;2023-02-18T02:09:50;10.80;99.90
20398;DHT22;10358;49.590;11.030;2023-02-18T02:12:38;10.80;99.90
20398;DHT22;10358;49.590;11.030;2023-02-18T02:18:12;10.70;99.90
20398;DHT22;10358;49.590;11.030;2023-02-18T02:26:37;10.60;99.90
20398;DHT22;10358;49.590;11.030;2023-02-18T02:29:42;10.60;99.90
20398;DHT22;10358;49.590;11.030;2023-02-18T02:32:45;10.60;99.90
20398;DHT22;10358;49.590;11.030;2023-02-18T02:35:23;10.60;99.90
20398;DHT22;10358;49.590;11.030;2023-02-18T02:38:11;10.50;99.90
20398;DHT22;10358;49.590;11.030;2023-02-18T02:40:57;10.50;99.90
20398;DHT22;10358;49.590;11.030;2023-02-18T02:43:45;10.40;99.90
20398;DHT22;10358;49.590;11.030;2023-02-18T02:46:31;10.40;99.90
20398;DHT22;10358;49.590;11.030;2023-02-18T02:51:42;10.30;99.90
20398;DHT22;10358;49.590;11.030;2023-02-18T02:54:16;10.30;99.90
20398;DHT22;10358;49.590;11.030;2023-02-18T02:56:41;10.30;99.90
20398;DHT22;10358;49.590;11.030;2023-02-18T02:59:19;10.30;99.90
20398;DHT22;10358;49.590;11.030;2023-02-18T03:07:26;10.20;99.90
20398;DHT22;10358;49.590;11.030;2023-02-18T03:10:06;10.30;99.90
20398;DHT22;10358;49.590;11.030;2023-02-18T03:12:42;10.30;99.90
20398;DHT22;10358;49.590;11.030;2023-02-18T03:15:42;10.30;99.90
20398;DHT22;10358;49.590;11.030;2023-02-18T03:18:25;10.30;99.90
20398;DHT22;10358;49.590;11.030;2023-02-18T03:23:26;10.30;99.90
20398;DHT22;10358;49.590;11.030;2023-02-18T03:25:53;10.30;99.90
20398;DHT22;10358;49.590;11.030;2023-02-18T03:28:20;10.40;99.90
20398;DHT22;10358;49.590;11.030;2023-02-18T03:30:52;10.40;99.90
20398;DHT22;10358;49.590;11.030;2023-02-18T03:33:36;10.40;99.90
20398;DHT22;10358;49.590;11.030;2023-02-18T03:36:02;10.40;99.90
20398;DHT22;10358;49.590;11.030;2023-02-18T03:38:44;10.40;99.90
20398;DHT22;10358;49.590;11.030;2023-02-18T03:41:11;10.40;99.90
20398;DHT22;10358;49.590;11.030;2023-02-18T03:43:39;10.40;99.90
20398;DHT22;10358;49.590;11.030;2023-02-18T03:46:05;10.40;99.90
20398;DHT22;10358;49.590;11.030;2023-02-18T03:48:31;10.40;99.90
20398;DHT22;10358;49.590;11.030;2023-02-18T03:50:56;10.40;99.90
20398;DHT22;10358;49.590;11.030;2023-02-18T03:53:22;10.50;99.90
20398;DHT22;10358;49.590;11.030;2023-02-18T03:55:47;10.50;99.90
20398;DHT22;10358;49.590;11.030;2023-02-18T03:58:13;10.50;99.90
20398;DHT22;10358;49.590;11.030;2023-02-18T04:00:38;10.50;99.90
20398;DHT22;10358;49.590;11.030;2023-02-18T04:03:04;10.50;99.90
20398;DHT22;10358;49.590;11.030;2023-02-18T04:05:29;10.40;99.90
20398;DHT22;10358;49.590;11.030;2023-02-18T04:07:55;10.40;99.90
20398;DHT22;10358;49.590;11.030;2023-02-18T04:10:20;10.40;99.90
20398;DHT22;10358;49.590;11.030;2023-02-18T04:12:47;10.40;99.90
20398;DHT22;10358;49.590;11.030;2023-02-18T04:15:13;10.40;99.90
20398;DHT22;10358;49.590;11.030;2023-02-18T04:17:38;10.40;99.90
20398;DHT22;10358;49.590;11.030;2023-02-18T04:20:04;10.40;99.90
20398;DHT22;10358;49.590;11.030;2023-02-18T04:22:30;10.40;99.90
20398;DHT22;10358;49.590;11.030;2023-02-18T04:24:56;10.40;99.90
20398;DHT22;10358;49.590;11.030;2023-02-18T04:27:21;10.40;99.90
20398;DHT22;10358;49.590;11.030;2023-02-18T04:29:47;10.40;99.90
20398;DHT22;10358;49.590;11.030;2023-02-18T04:32:13;10.30;99.90
20398;DHT22;10358;49.590;11.030;2023-02-18T04:34:38;10.30;99.90
20398;DHT22;10358;49.590;11.030;2023-02-18T04:37:04;10.30;99.90
20398;DHT22;10358;49.590;11.030;2023-02-18T04:39:30;10.30;99.90
20398;DHT22;10358;49.590;11.030;2023-02-18T04:41:56;10.20;99.90
20398;DHT22;10358;49.590;11.030;2023-02-18T04:44:21;10.20;99.90
20398;DHT22;10358;49.590;11.030;2023-02-18T04:46:47;10.20;99.90
20398;DHT22;10358;49.590;11.030;2023-02-18T04:49:12;10.20;99.90
20398;DHT22;10358;49.590;11.030;2023-02-18T04:51:38;10.20;99.90
20398;DHT22;10358;49.590;11.030;2023-02-18T04:54:04;10.10;99.90
20398;DHT22;10358;49.590;11.030;2023-02-18T04:56:29;10.20;99.90
20398;DHT22;10358;49.590;11.030;2023-02-18T04:58:55;10.20;99.90
20398;DHT22;10358;49.590;11.030;2023-02-18T05:01:21;10.20;99.90
20398;DHT22;10358;49.590;11.030;2023-02-18T05:03:46;10.20;99.90
20398;DHT22;10358;49.590;11.030;2023-02-18T05:06:12;10.20;99.90
20398;DHT22;10358;49.590;11.030;2023-02-18T05:08:37;10.30;99.90
20398;DHT22;10358;49.590;11.030;2023-02-18T05:11:07;10.30;99.90
20398;DHT22;10358;49.590;11.030;2023-02-18T05:13:33;10.30;99.90
20398;DHT22;10358;49.590;11.030;2023-02-18T05:15:59;10.30;99.90
20398;DHT22;10358;49.590;11.030;2023-02-18T05:18:24;10.30;99.90
20398;DHT22;10358;49.590;11.030;2023-02-18T05:20:50;10.30;99.90
20398;DHT22;10358;49.590;11.030;2023-02-18T05:23:15;10.20;99.90
20398;DHT22;10358;49.590;11.030;2023-02-18T05:25:42;10.20;99.90
20398;DHT22;10358;49.590;11.030;2023-02-18T05:28:08;10.10;99.90
20398;DHT22;10358;49.590;11.030;2023-02-18T05:30:33;10.10;99.90
20398;DHT22;10358;49.590;11.030;2023-02-18T05:32:59;10.10;99.90
20398;DHT22;10358;49.590;11.030;2023-02-18T05:35:24;10.10;99.90
20398;DHT22;10358;49.590;11.030;2023-02-18T05:37:50;10.10;99.90
20398;DHT22;10358;49.590;11.030;2023-02-18T05:40:16;10.00;99.90
20398;DHT22;10358;49.590;11.030;2023-02-18T05:42:41;10.00;99.90
20398;DHT22;10358;49.590;11.030;2023-02-18T05:45:07;10.00;99.90
20398;DHT22;10358;49.590;11.030;2023-02-18T05:47:33;10.00;99.90
20398;DHT22;10358;49.590;11.030;2023-02-18T05:49:58;10.00;99.90
20398;DHT22;10358;49.590;11.030;2023-02-18T05:52:24;10.10;99.90
20398;DHT22;10358;49.590;11.030;2023-02-18T05:54:49;10.00;99.90
20398;DHT22;10358;49.590;11.030;2023-02-18T05:57:15;10.00;99.90
20398;DHT22;10358;49.590;11.030;2023-02-18T05:59:41;10.10;99.90
20398;DHT22;10358;49.590;11.030;2023-02-18T06:02:06;10.10;99.90
20398;DHT22;10358;49.590;11.030;2023-02-18T06:04:32;10.00;99.90
20398;DHT22;10358;49.590;11.030;2023-02-18T06:06:58;10.10;99.90
20398;DHT22;10358;49.590;11.030;2023-02-18T06:09:23;10.00;99.90
20398;DHT22;10358;49.590;11.030;2023-02-18T06:11:49;9.70;99.90
20398;DHT22;10358;49.590;11.030;2023-02-18T06:14:15;10.10;99.90
20398;DHT22;10358;49.590;11.030;2023-02-18T06:16:40;9.90;99.90
20398;DHT22;10358;49.590;11.030;2023-02-18T06:19:06;10.00;99.90
20398;DHT22;10358;49.590;11.030;2023-02-18T06:21:31;10.00;99.90
20398;DHT22;10358;49.590;11.030;2023-02-18T06:23:57;9.90;99.90
20398;DHT22;10358;49.590;11.030;2023-02-18T06:26:23;9.90;99.90
20398;DHT22;10358;49.590;11.030;2023-02-18T06:28:49;9.90;99.90
20398;DHT22;10358;49.590;11.030;2023-02-18T06:31:14;10.00;99.90
20398;DHT22;10358;49.590;11.030;2023-02-18T06:33:40;9.90;99.90
20398;DHT22;10358;49.590;11.030;2023-02-18T06:36:07;10.00;99.90
20398;DHT22;10358;49.590;11.030;2023-02-18T06:38:34;10.00;99.90
20398;DHT22;10358;49.590;11.030;2023-02-18T06:41:00;10.00;99.90
20398;DHT22;10358;49.590;11.030;2023-02-18T06:43:25;10.00;99.90
20398;DHT22;10358;49.590;11.030;2023-02-18T06:45:51;10.10;99.90
20398;DHT22;10358;49.590;11.030;2023-02-18T06:48:17;10.00;99.90
20398;DHT22;10358;49.590;11.030;2023-02-18T06:50:43;10.00;99.90
20398;DHT22;10358;49.590;11.030;2023-02-18T06:53:08;10.00;99.90
20398;DHT22;10358;49.590;11.030;2023-02-18T06:55:34;10.10;99.90
20398;DHT22;10358;49.590;11.030;2023-02-18T06:58:00;10.10;99.90
20398;DHT22;10358;49.590;11.030;2023-02-18T07:00:25;10.10;99.90
20398;DHT22;10358;49.590;11.030;2023-02-18T07:02:51;10.20;99.90
20398;DHT22;10358;49.590;11.030;2023-02-18T07:05:16;10.20;99.90
20398;DHT22;10358;49.590;11.030;2023-02-18T07:07:42;10.20;99.90
20398;DHT22;10358;49.590;11.030;2023-02-18T07:10:09;10.30;99.90
20398;DHT22;10358;49.590;11.030;2023-02-18T07:12:35;10.30;99.90
20398;DHT22;10358;49.590;11.030;2023-02-18T07:15:00;10.30;99.90
20398;DHT22;10358;49.590;11.030;2023-02-18T07:17:27;10.30;99.90
20398;DHT22;10358;49.590;11.030;2023-02-18T07:19:52;10.30;99.90
20398;DHT22;10358;49.590;11.030;2023-02-18T07:22:20;10.30;99.90
20398;DHT22;10358;49.590;11.030;2023-02-18T07:24:45;10.30;99.90
20398;DHT22;10358;49.590;11.030;2023-02-18T07:27:14;10.30;99.90
20398;DHT22;10358;49.590;11.030;2023-02-18T07:29:40;10.30;99.90
20398;DHT22;10358;49.590;11.030;2023-02-18T07:32:06;10.40;99.90
20398;DHT22;10358;49.590;11.030;2023-02-18T07:34:31;10.30;99.90
20398;DHT22;10358;49.590;11.030;2023-02-18T07:36:57;10.30;99.90
20398;DHT22;10358;49.590;11.030;2023-02-18T07:39:23;10.30;99.90
20398;DHT22;10358;49.590;11.030;2023-02-18T07:41:48;10.30;99.90
20398;DHT22;10358;49.590;11.030;2023-02-18T07:44:14;10.30;99.90
20398;DHT22;10358;49.590;11.030;2023-02-18T07:46:40;10.30;99.90
20398;DHT22;10358;49.590;11.030;2023-02-18T07:49:07;10.30;99.90
20398;DHT22;10358;49.590;11.030;2023-02-18T07:51:32;10.30;99.90
20398;DHT22;10358;49.590;11.030;2023-02-18T07:53:58;10.30;99.90
20398;DHT22;10358;49.590;11.030;2023-02-18T07:56:23;10.30;99.90
20398;DHT22;10358;49.590;11.030;2023-02-18T07:58:49;10.40;99.90
20398;DHT22;10358;49.590;11.030;2023-02-18T08:01:15;10.40;99.90
20398;DHT22;10358;49.590;11.030;2023-02-18T08:03:41;10.50;99.90
20398;DHT22;10358;49.590;11.030;2023-02-18T08:06:07;10.50;99.90
20398;DHT22;10358;49.590;11.030;2023-02-18T08:08:33;10.50;99.90
20398;DHT22;10358;49.590;11.030;2023-02-18T08:11:01;10.60;99.90
20398;DHT22;10358;49.590;11.030;2023-02-18T08:13:28;10.60;99.90
20398;DHT22;10358;49.590;11.030;2023-02-18T08:15:55;10.70;99.90
20398;DHT22;10358;49.590;11.030;2023-02-18T08:18:22;10.70;99.90
20398;DHT22;10358;49.590;11.030;2023-02-18T08:20:49;10.80;99.90
20398;DHT22;10358;49.590;11.030;2023-02-18T08:23:17;10.80;99.90
20398;DHT22;10358;49.590;11.030;2023-02-18T08:25:50;10.90;99.90
20398;DHT22;10358;49.590;11.030;2023-02-18T08:28:20;10.90;99.90
20398;DHT22;10358;49.590;11.030;2023-02-18T08:30:51;10.90;99.90
20398;DHT22;10358;49.590;11.030;2023-02-18T08:33:18;10.90;99.90
20398;DHT22;10358;49.590;11.030;2023-02-18T08:35:45;11.00;99.90
20398;DHT22;10358;49.590;11.030;2023-02-18T08:38:11;11.10;99.90
20398;DHT22;10358;49.590;11.030;2023-02-18T08:40:37;11.20;99.90
20398;DHT22;10358;49.590;11.030;2023-02-18T08:43:02;11.30;99.90
20398;DHT22;10358;49.590;11.030;2023-02-18T08:45:28;11.50;99.90
20398;DHT22;10358;49.590;11.030;2023-02-18T08:47:53;11.50;99.90
20398;DHT22;10358;49.590;11.030;2023-02-18T08:50:19;11.50;99.90
20398;DHT22;10358;49.590;11.030;2023-02-18T08:52:46;11.60;99.90
20398;DHT22;10358;49.590;11.030;2023-02-18T08:55:12;10.50;99.90
20398;DHT22;10358;49.590;11.030;2023-02-18T08:57:38;11.80;99.90
20398;DHT22;10358;49.590;11.030;2023-02-18T09:00:04;11.80;99.90
20398;DHT22;10358;49.590;11.030;2023-02-18T09:02:30;11.90;99.90
20398;DHT22;10358;49.590;11.030;2023-02-18T09:04:58;12.00;99.90
20398;DHT22;10358;49.590;11.030;2023-02-18T09:07:24;12.00;99.90
20398;DHT22;10358;49.590;11.030;2023-02-18T09:09:49;12.10;99.90
20398;DHT22;10358;49.590;11.030;2023-02-18T09:12:15;12.20;99.90
20398;DHT22;10358;49.590;11.030;2023-02-18T09:14:40;12.20;99.90
20398;DHT22;10358;49.590;11.030;2023-02-18T09:17:06;12.20;99.90
20398;DHT22;10358;49.590;11.030;2023-02-18T09:19:31;12.10;99.90
20398;DHT22;10358;49.590;11.030;2023-02-18T09:21:57;12.10;99.90
20398;DHT22;10358;49.590;11.030;2023-02-18T09:24:23;12.10;99.90
20398;DHT22;10358;49.590;11.030;2023-02-18T09:26:49;12.10;99.90
20398;DHT22;10358;49.590;11.030;2023-02-18T09:29:16;12.20;99.90
20398;DHT22;10358;49.590;11.030;2023-02-18T09:31:42;12.10;99.90
20398;DHT22;10358;49.590;11.030;2023-02-18T09:34:08;12.10;99.90
20398;DHT22;10358;49.590;11.030;2023-02-18T09:36:33;12.10;99.90
20398;DHT22;10358;49.590;11.030;2023-02-18T09:38:59;12.10;99.90
20398;DHT22;10358;49.590;11.030;2023-02-18T09:44:22;12.10;99.90
20398;DHT22;10358;49.590;11.030;2023-02-18T09:46:59;12.10;99.90
20398;DHT22;10358;49.590;11.030;2023-02-18T09:49:28;12.10;99.90
20398;DHT22;10358;49.590;11.030;2023-02-18T09:52:10;12.10;99.90
20398;DHT22;10358;49.590;11.030;2023-02-18T09:54:37;12.10;99.90
20398;DHT22;10358;49.590;11.030;2023-02-18T09:57:05;12.10;99.90
20398;DHT22;10358;49.590;11.030;2023-02-18T09:59:31;12.10;99.90
20398;DHT22;10358;49.590;11.030;2023-02-18T10:01:57;12.10;99.90
20398;DHT22;10358;49.590;11.030;2023-02-18T10:04:33;12.10;99.90
20398;DHT22;10358;49.590;11.030;2023-02-18T10:07:02;12.10;99.90
20398;DHT22;10358;49.590;11.030;2023-02-18T10:09:32;12.10;99.90
20398;DHT22;10358;49.590;11.030;2023-02-18T10:12:15;12.20;99.90
20398;DHT22;10358;49.590;11.030;2023-02-18T10:14:43;12.30;99.90
20398;DHT22;10358;49.590;11.030;2023-02-18T10:17:14;12.30;99.90
20398;DHT22;10358;49.590;11.030;2023-02-18T10:19:42;12.40;99.90
20398;DHT22;10358;49.590;11.030;2023-02-18T10:22:11;12.40;99.90
20398;DHT22;10358;49.590;11.030;2023-02-18T10:27:06;12.60;99.90
20398;DHT22;10358;49.590;11.030;2023-02-18T10:29:32;12.60;99.90
20398;DHT22;10358;49.590;11.030;2023-02-18T10:32:00;12.70;99.90
20398;DHT22;10358;49.590;11.030;2023-02-18T10:40:29;12.90;99.90
20398;DHT22;10358;49.590;11.030;2023-02-18T10:46:04;12.90;99.90
20398;DHT22;10358;49.590;11.030;2023-02-18T10:51:21;13.10;99.90
20398;DHT22;10358;49.590;11.030;2023-02-18T10:53:49;13.10;99.90
20398;DHT22;10358;49.590;11.030;2023-02-18T10:56:39;13.20;99.90
20398;DHT22;10358;49.590;11.030;2023-02-18T10:59:10;13.20;99.90
20398;DHT22;10358;49.590;11.030;2023-02-18T11:01:36;13.30;99.90
20398;DHT22;10358;49.590;11.030;2023-02-18T11:04:19;13.30;99.90
20398;DHT22;10358;49.590;11.030;2023-02-18T11:06:47;13.30;99.90
20398;DHT22;10358;49.590;11.030;2023-02-18T11:09:23;13.30;99.90
20398;DHT22;10358;49.590;11.030;2023-02-18T11:11:50;13.20;99.90
20398;DHT22;10358;49.590;11.030;2023-02-18T11:14:20;13.20;99.90
20398;DHT22;10358;49.590;11.030;2023-02-18T11:17:09;13.20;99.90
20398;DHT22;10358;49.590;11.030;2023-02-18T11:19:39;13.10;99.90
20398;DHT22;10358;49.590;11.030;2023-02-18T11:22:15;13.10;99.90
20398;DHT22;10358;49.590;11.030;2023-02-18T11:24:43;13.00;99.90
20398;DHT22;10358;49.590;11.030;2023-02-18T11:27:21;13.10;99.90
20398;DHT22;10358;49.590;11.030;2023-02-18T11:29:50;13.10;99.90
20398;DHT22;10358;49.590;11.030;2023-02-18T11:32:17;13.10;99.90
20398;DHT22;10358;49.590;11.030;2023-02-18T11:34:43;13.10;99.90
20398;DHT22;10358;49.590;11.030;2023-02-18T11:37:14;13.10;99.90
20398;DHT22;10358;49.590;11.030;2023-02-18T11:39:43;13.20;99.90
20398;DHT22;10358;49.590;11.030;2023-02-18T11:42:13;13.20;99.90
20398;DHT22;10358;49.590;11.030;2023-02-18T11:44:54;13.20;99.90
20398;DHT22;10358;49.590;11.030;2023-02-18T11:47:41;13.20;99.90
20398;DHT22;10358;49.590;11.030;2023-02-18T11:50:13;13.10;99.90
20398;DHT22;10358;49.590;11.030;2023-02-18T11:52:43;13.10;99.90
20398;DHT22;10358;49.590;11.030;2023-02-18T11:55:19;13.10;99.90
20398;DHT22;10358;49.590;11.030;2023-02-18T11:58:02;13.00;99.90
20398;DHT22;10358;49.590;11.030;2023-02-18T12:00:50;13.00;99.90
20398;DHT22;10358;49.590;11.030;2023-02-18T12:06:14;12.90;99.90
20398;DHT22;10358;49.590;11.030;2023-02-18T12:08:51;12.90;99.90
20398;DHT22;10358;49.590;11.030;2023-02-18T12:11:36;12.80;99.90
20398;DHT22;10358;49.590;11.030;2023-02-18T12:14:07;12.90;99.90
20398;DHT22;10358;49.590;11.030;2023-02-18T12:23:04;12.90;99.90
20398;DHT22;10358;49.590;11.030;2023-02-18T12:38:44;12.90;99.90
20398;DHT22;10358;49.590;11.030;2023-02-18T12:53:01;12.80;99.90
20398;DHT22;10358;49.590;11.030;2023-02-18T12:55:32;12.80;99.90
20398;DHT22;10358;49.590;11.030;2023-02-18T13:09:57;12.70;99.90
20398;DHT22;10358;49.590;11.030;2023-02-18T13:15:10;12.60;99.90
20398;DHT22;10358;49.590;11.030;2023-02-18T13:17:39;12.60;99.90
20398;DHT22;10358;49.590;11.030;2023-02-18T13:22:53;12.60;99.90
20398;DHT22;10358;49.590;11.030;2023-02-18T13:25:20;12.70;99.90
20398;DHT22;10358;49.590;11.030;2023-02-18T13:30:47;12.70;99.90
20398;DHT22;10358;49.590;11.030;2023-02-18T13:36:05;12.80;99.90
20398;DHT22;10358;49.590;11.030;2023-02-18T13:38:53;12.90;99.90
20398;DHT22;10358;49.590;11.030;2023-02-18T13:41:21;13.00;99.90
20398;DHT22;10358;49.590;11.030;2023-02-18T13:43:47;13.00;99.90
20398;DHT22;10358;49.590;11.030;2023-02-18T13:51:10;12.90;99.90
20398;DHT22;10358;49.590;11.030;2023-02-18T13:53:40;12.80;99.90
20398;DHT22;10358;49.590;11.030;2023-02-18T13:58:46;12.80;99.90
20398;DHT22;10358;49.590;11.030;2023-02-18T14:01:20;12.80;99.90
20398;DHT22;10358;49.590;11.030;2023-02-18T14:03:50;12.80;99.90
20398;DHT22;10358;49.590;11.030;2023-02-18T14:06:23;12.80;99.90
20398;DHT22;10358;49.590;11.030;2023-02-18T14:08:50;12.70;99.90
20398;DHT22;10358;49.590;11.030;2023-02-18T14:16:25;12.70;99.90
20398;DHT22;10358;49.590;11.030;2023-02-18T14:18:58;12.70;99.90
20398;DHT22;10358;49.590;11.030;2023-02-18T14:21:36;12.60;99.90
20398;DHT22;10358;49.590;11.030;2023-02-18T14:24:05;12.70;99.90
20398;DHT22;10358;49.590;11.030;2023-02-18T14:26:33;12.60;99.90
20398;DHT22;10358;49.590;11.030;2023-02-18T14:29:00;12.60;99.90
20398;DHT22;10358;49.590;11.030;2023-02-18T14:37:06;12.50;99.90
20398;DHT22;10358;49.590;11.030;2023-02-18T14:39:41;12.60;99.90
20398;DHT22;10358;49.590;11.030;2023-02-18T14:45:13;12.50;99.90
20398;DHT22;10358;49.590;11.030;2023-02-18T14:50:14;12.40;99.90
20398;DHT22;10358;49.590;11.030;2023-02-18T14:52:49;12.30;99.90
20398;DHT22;10358;49.590;11.030;2023-02-18T14:55:21;12.20;99.90
20398;DHT22;10358;49.590;11.030;2023-02-18T14:57:52;12.10;99.90
20398;DHT22;10358;49.590;11.030;2023-02-18T15:02:52;12.00;99.90
20398;DHT22;10358;49.590;11.030;2023-02-18T15:05:21;12.00;99.90
20398;DHT22;10358;49.590;11.030;2023-02-18T15:08:15;11.90;99.90
20398;DHT22;10358;49.590;11.030;2023-02-18T15:10:51;12.00;99.90
20398;DHT22;10358;49.590;11.030;2023-02-18T15:15:44;12.00;99.90
20398;DHT22;10358;49.590;11.030;2023-02-18T15:18:22;11.90;99.90
20398;DHT22;10358;49.590;11.030;2023-02-18T15:20:51;11.90;99.90
20398;DHT22;10358;49.590;11.030;2023-02-18T15:23:17;11.90;99.90
20398;DHT22;10358;49.590;11.030;2023-02-18T15:25:51;11.90;99.90
20398;DHT22;10358;49.590;11.030;2023-02-18T15:28:22;11.90;99.90
20398;DHT22;10358;49.590;11.030;2023-02-18T15:30:48;11.90;99.90
20398;DHT22;10358;49.590;11.030;2023-02-18T15:33:15;11.90;99.90
20398;DHT22;10358;49.590;11.030;2023-02-18T15:35:42;11.90;99.90
20398;DHT22;10358;49.590;11.030;2023-02-18T15:38:18;11.80;99.90
20398;DHT22;10358;49.590;11.030;2023-02-18T15:40:48;11.80;99.90
20398;DHT22;10358;49.590;11.030;2023-02-18T15:43:18;11.80;99.90
20398;DHT22;10358;49.590;11.030;2023-02-18T15:45:46;11.80;99.90
20398;DHT22;10358;49.590;11.030;2023-02-18T15:48:41;11.80;99.90
20398;DHT22;10358;49.590;11.030;2023-02-18T15:51:11;11.70;99.90
20398;DHT22;10358;49.590;11.030;2023-02-18T15:53:39;11.70;99.90
20398;DHT22;10358;49.590;11.030;2023-02-18T15:56:09;11.70;99.90
20398;DHT22;10358;49.590;11.030;2023-02-18T15:58:35;11.70;99.90
20398;DHT22;10358;49.590;11.030;2023-02-18T16:01:06;11.70;99.90
20398;DHT22;10358;49.590;11.030;2023-02-18T16:03:45;11.70;99.90
20398;DHT22;10358;49.590;11.030;2023-02-18T16:06:16;11.70;99.90
20398;DHT22;10358;49.590;11.030;2023-02-18T16:08:59;11.60;99.90
20398;DHT22;10358;49.590;11.030;2023-02-18T16:11:30;11.70;99.90
20398;DHT22;10358;49.590;11.030;2023-02-18T16:13:56;11.60;99.90
20398;DHT22;10358;49.590;11.030;2023-02-18T16:16:34;11.60;99.90
20398;DHT22;10358;49.590;11.030;2023-02-18T16:19:00;11.60;99.90
20398;DHT22;10358;49.590;11.030;2023-02-18T16:24:03;11.50;99.90
20398;DHT22;10358;49.590;11.030;2023-02-18T16:26:42;11.60;99.90
20398;DHT22;10358;49.590;11.030;2023-02-18T16:29:13;11.60;99.90
20398;DHT22;10358;49.590;11.030;2023-02-18T16:31:38;11.50;99.90
20398;DHT22;10358;49.590;11.030;2023-02-18T16:34:04;11.50;99.90
20398;DHT22;10358;49.590;11.030;2023-02-18T16:36:30;11.50;99.90
20398;DHT22;10358;49.590;11.030;2023-02-18T16:38:56;11.50;99.90
20398;DHT22;10358;49.590;11.030;2023-02-18T16:41:23;11.40;99.90
20398;DHT22;10358;49.590;11.030;2023-02-18T16:43:49;11.40;99.90
20398;DHT22;10358;49.590;11.030;2023-02-18T16:46:17;11.40;99.90
20398;DHT22;10358;49.590;11.030;2023-02-18T16:48:50;11.40;99.90
20398;DHT22;10358;49.590;11.030;2023-02-18T16:51:30;11.30;99.90
20398;DHT22;10358;49.590;11.030;2023-02-18T16:53:57;11.30;99.90
20398;DHT22;10358;49.590;11.030;2023-02-18T16:56:29;11.30;99.90
20398;DHT22;10358;49.590;11.030;2023-02-18T16:58:56;11.20;99.90
20398;DHT22;10358;49.590;11.030;2023-02-18T17:01:34;11.20;99.90
20398;DHT22;10358;49.590;11.030;2023-02-18T17:04:03;11.20;99.90
20398;DHT22;10358;49.590;11.030;2023-02-18T17:06:30;11.10;99.90
20398;DHT22;10358;49.590;11.030;2023-02-18T17:08:56;11.10;99.90
20398;DHT22;10358;49.590;11.030;2023-02-18T17:11:25;11.00;99.90
20398;DHT22;10358;49.590;11.030;2023-02-18T17:13:52;11.00;99.90
20398;DHT22;10358;49.590;11.030;2023-02-18T17:16:19;11.00;99.90
20398;DHT22;10358;49.590;11.030;2023-02-18T17:18:45;10.90;99.90
20398;DHT22;10358;49.590;11.030;2023-02-18T17:21:14;10.90;99.90
20398;DHT22;10358;49.590;11.030;2023-02-18T17:23:40;10.90;99.90
20398;DHT22;10358;49.590;11.030;2023-02-18T17:26:21;10.80;99.90
20398;DHT22;10358;49.590;11.030;2023-02-18T17:28:49;10.80;99.90
20398;DHT22;10358;49.590;11.030;2023-02-18T17:31:21;10.70;99.90
20398;DHT22;10358;49.590;11.030;2023-02-18T17:33:48;10.70;99.90
20398;DHT22;10358;49.590;11.030;2023-02-18T17:36:14;10.70;99.90